Bulagtai Resort Airport


Codes: ZMBR/UGT
Name: Bulagtai Resort Airport
City: Umnugobitour
Country: Mongolia
Elevation: 4659 ft.

Photos at Bulagtai Resort Airport


   Photos courtesy of SpottingLog. You can add your own sightings and photos by signing up for a free trial today.



No photos found.

Weather at Bulagtai Resort Airport


Time (UTC)DescriptionTempratureWindCloud coverageVisibilityPressureHumidity
16-Jun-2024 03:00Broken Clouds23°C9 mph, NW64%10000m1010hPa25%
16-Jun-2024 06:00Broken Clouds26°C9 mph, NW59%10000m1008hPa22%
16-Jun-2024 09:00Overcast Clouds29°C11 mph, NW100%10000m1005hPa19%
16-Jun-2024 12:00Overcast Clouds27°C9 mph, NW100%10000m1004hPa21%
16-Jun-2024 15:00Overcast Clouds25°C2 mph, SE87%10000m1005hPa25%
16-Jun-2024 18:00Overcast Clouds23°C7 mph, SE92%10000m1005hPa29%
16-Jun-2024 21:00Overcast Clouds20°C7 mph, NW100%10000m1006hPa45%
17-Jun-2024 00:00Overcast Clouds24°C9 mph, SE94%10000m1004hPa28%
17-Jun-2024 03:00Overcast Clouds30°C13 mph, SW100%10000m1001hPa13%
17-Jun-2024 06:00Overcast Clouds31°C18 mph, SW99%10000m999hPa13%
17-Jun-2024 09:00Overcast Clouds31°C25 mph, W100%10000m996hPa16%
17-Jun-2024 12:00Light Rain24°C13 mph, SW100%10000m999hPa30%
17-Jun-2024 15:00Overcast Clouds24°C2 mph, W98%10000m1000hPa29%
17-Jun-2024 18:00Broken Clouds23°C11 mph, SW69%10000m1000hPa33%
17-Jun-2024 21:00Overcast Clouds22°C11 mph, SW91%10000m999hPa36%
18-Jun-2024 00:00Broken Clouds24°C7 mph, NW74%10000m999hPa24%
18-Jun-2024 03:00Scattered Clouds28°C13 mph, W28%10000m997hPa16%
18-Jun-2024 06:00Broken Clouds30°C20 mph, W63%10000m995hPa13%
18-Jun-2024 09:00Overcast Clouds29°C22 mph, W100%10000m993hPa13%
18-Jun-2024 12:00Overcast Clouds25°C16 mph, SW88%10000m994hPa20%
18-Jun-2024 15:00Light Rain24°C11 mph, W72%10000m995hPa24%
18-Jun-2024 18:00Overcast Clouds23°C11 mph, SW86%10000m995hPa25%
18-Jun-2024 21:00Light Rain19°C7 mph, SW86%10000m995hPa39%
19-Jun-2024 00:00Overcast Clouds21°C4 mph, SW93%10000m995hPa36%
19-Jun-2024 03:00Light Rain19°C27 mph, NW100%10000m997hPa49%
19-Jun-2024 06:00Light Rain24°C13 mph, W100%10000m994hPa32%
19-Jun-2024 09:00Light Rain25°C18 mph, W99%10000m993hPa31%
19-Jun-2024 12:00Broken Clouds24°C13 mph, NW68%10000m994hPa31%
19-Jun-2024 15:00Broken Clouds24°C7 mph, W66%10000m995hPa33%
19-Jun-2024 18:00Broken Clouds21°C7 mph, W51%10000m996hPa40%
19-Jun-2024 21:00Few Clouds20°C7 mph, SW20%10000m996hPa40%
20-Jun-2024 00:00Few Clouds24°C4 mph, NW14%10000m997hPa32%
20-Jun-2024 03:00Clear Sky27°C9 mph, N6%10000m997hPa27%
20-Jun-2024 06:00Few Clouds29°C7 mph, N22%10000m995hPa21%
20-Jun-2024 09:00Broken Clouds31°C4 mph, W70%10000m993hPa14%
20-Jun-2024 12:00Overcast Clouds28°C25 mph, NW85%10000m995hPa18%
20-Jun-2024 15:00Overcast Clouds23°C18 mph, NW100%10000m1000hPa28%
20-Jun-2024 18:00Overcast Clouds20°C16 mph, NW100%10000m1002hPa33%
20-Jun-2024 21:00Overcast Clouds19°C18 mph, NW99%10000m1003hPa29%
21-Jun-2024 00:00Overcast Clouds18°C11 mph, NW99%10000m1004hPa29%